createdAt,value
2023-01-29T00:02:19.808Z,28.70
2023-01-29T00:04:47.284Z,31.30
2023-01-29T00:07:14.814Z,28.80
2023-01-29T00:09:42.148Z,27.60
2023-01-29T00:12:09.648Z,28.70
2023-01-29T00:14:37.002Z,29.80
2023-01-29T00:17:04.487Z,28.20
2023-01-29T00:19:31.853Z,31.80
2023-01-29T00:21:59.217Z,30.00
2023-01-29T00:24:26.605Z,28.80
2023-01-29T00:26:54.026Z,31.50
2023-01-29T00:29:22.040Z,30.00
2023-01-29T00:31:49.760Z,30.80
2023-01-29T00:34:17.548Z,30.30
2023-01-29T00:36:45.676Z,29.60
2023-01-29T00:39:13.360Z,34.00
2023-01-29T00:41:59.341Z,31.60
2023-01-29T00:44:45.311Z,30.30
2023-01-29T00:47:31.005Z,30.30
2023-01-29T00:49:58.443Z,30.40
2023-01-29T00:52:26.792Z,32.90
2023-01-29T00:54:57.713Z,34.20
2023-01-29T00:57:27.613Z,30.70
2023-01-29T00:59:55.119Z,33.30
2023-01-29T01:02:42.051Z,32.00
2023-01-29T01:05:13.999Z,27.50
2023-01-29T01:07:41.414Z,30.30
2023-01-29T01:10:22.943Z,33.00
2023-01-29T01:15:40.535Z,32.40
2023-01-29T01:18:08.083Z,30.30
2023-01-29T01:20:36.896Z,31.60
2023-01-29T01:23:04.625Z,31.10
2023-01-29T01:25:32.145Z,36.60
2023-01-29T01:30:27.259Z,33.20
2023-01-29T01:32:54.761Z,30.80
2023-01-29T01:35:22.186Z,32.20
2023-01-29T01:37:49.636Z,31.90
2023-01-29T01:40:23.795Z,32.60
2023-01-29T01:43:00.294Z,31.40
2023-01-29T01:45:37.230Z,31.60
2023-01-29T01:48:13.458Z,35.50
2023-01-29T01:51:03.484Z,32.40
2023-01-29T01:53:38.736Z,30.10
2023-01-29T01:56:24.805Z,33.70
2023-01-29T01:58:58.172Z,32.80
2023-01-29T02:01:30.140Z,35.20
2023-01-29T02:04:21.784Z,33.90
2023-01-29T02:09:43.078Z,34.20
2023-01-29T02:12:16.322Z,34.40
2023-01-29T02:14:44.790Z,31.90
2023-01-29T02:17:16.070Z,35.80
2023-01-29T02:20:20.810Z,32.20
2023-01-29T02:23:27.101Z,36.40
2023-01-29T02:26:17.234Z,37.10
2023-01-29T02:28:56.150Z,37.00
2023-01-29T02:31:41.739Z,33.60
2023-01-29T02:35:14.854Z,35.60
2023-01-29T02:37:55.998Z,32.60
2023-01-29T02:40:59.661Z,31.10
2023-01-29T02:43:54.137Z,32.60
2023-01-29T02:46:34.003Z,34.10
2023-01-29T02:49:25.067Z,32.80
2023-01-29T02:52:11.034Z,35.00
2023-01-29T02:54:49.536Z,33.10
2023-01-29T02:57:24.345Z,32.00
2023-01-29T03:00:14.323Z,33.90
2023-01-29T03:02:53.766Z,31.10
2023-01-29T03:05:45.866Z,32.60
2023-01-29T03:08:43.457Z,29.80
2023-01-29T03:11:15.282Z,33.70
2023-01-29T03:13:59.980Z,32.80
2023-01-29T03:16:33.633Z,33.80
2023-01-29T03:19:09.274Z,33.80
2023-01-29T03:21:59.793Z,35.10
2023-01-29T03:25:14.680Z,33.90
2023-01-29T03:28:07.151Z,33.30
2023-01-29T03:31:04.711Z,29.80
2023-01-29T03:33:41.090Z,31.60
2023-01-29T03:37:09.298Z,34.10
2023-01-29T03:39:37.036Z,31.00
2023-01-29T03:42:48.434Z,31.40
2023-01-29T03:45:27.937Z,37.90
2023-01-29T03:48:20.398Z,32.50
2023-01-29T03:51:11.929Z,34.90
2023-01-29T03:53:50.061Z,31.00
2023-01-29T03:56:36.667Z,36.20
2023-01-29T03:59:24.353Z,36.70
2023-01-29T04:02:01.007Z,33.60
2023-01-29T04:04:36.882Z,36.80
2023-01-29T04:07:13.932Z,34.00
2023-01-29T04:09:52.664Z,31.60
2023-01-29T04:12:26.158Z,33.70
2023-01-29T04:14:54.947Z,33.70
2023-01-29T04:17:37.990Z,32.30
2023-01-29T04:20:06.383Z,36.30
2023-01-29T04:22:40.158Z,33.40
2023-01-29T04:25:16.032Z,35.50
2023-01-29T04:28:03.200Z,39.20
2023-01-29T04:30:48.475Z,36.70
2023-01-29T04:33:40.455Z,34.60
2023-01-29T04:36:42.226Z,31.90
2023-01-29T04:42:14.361Z,33.70
2023-01-29T04:45:06.769Z,36.60
2023-01-29T04:47:54.838Z,34.30
2023-01-29T04:51:24.975Z,35.40
2023-01-29T04:54:12.491Z,35.30
2023-01-29T04:57:01.848Z,35.80
2023-01-29T04:59:52.496Z,34.70
2023-01-29T05:02:24.544Z,32.50
2023-01-29T05:04:54.309Z,30.50
2023-01-29T05:07:24.630Z,32.90
2023-01-29T05:09:52.317Z,32.20
2023-01-29T05:12:19.741Z,36.10
2023-01-29T05:14:49.410Z,35.40
2023-01-29T05:17:20.244Z,35.70
2023-01-29T05:19:47.952Z,36.80
2023-01-29T05:22:18.095Z,36.90
2023-01-29T05:24:46.584Z,33.20
2023-01-29T05:27:42.697Z,31.70
2023-01-29T05:30:11.454Z,36.30
2023-01-29T05:32:39.809Z,38.00
2023-01-29T05:35:07.721Z,36.20
2023-01-29T05:37:35.135Z,34.80
2023-01-29T05:40:02.544Z,34.30
2023-01-29T05:42:29.985Z,34.60
2023-01-29T05:44:57.327Z,34.30
2023-01-29T05:47:24.809Z,33.50
2023-01-29T05:49:52.174Z,31.60
2023-01-29T05:52:19.510Z,37.90
2023-01-29T05:54:46.919Z,33.40
2023-01-29T05:57:14.963Z,33.50
2023-01-29T05:59:42.384Z,38.10
2023-01-29T06:02:09.839Z,36.20
2023-01-29T06:04:37.487Z,36.30
2023-01-29T06:07:05.296Z,35.70
2023-01-29T06:09:32.736Z,33.20
2023-01-29T06:12:00.137Z,31.80
2023-01-29T06:14:27.587Z,32.60
2023-01-29T06:16:54.936Z,33.70
2023-01-29T06:19:22.363Z,34.60
2023-01-29T06:21:49.714Z,37.70
2023-01-29T06:24:17.237Z,38.20
2023-01-29T06:26:44.725Z,36.10
2023-01-29T06:29:12.154Z,34.10
2023-01-29T06:31:40.513Z,34.80
2023-01-29T06:34:08.843Z,34.10
2023-01-29T06:36:36.390Z,33.20
2023-01-29T06:39:04.583Z,34.30
2023-01-29T06:41:32.081Z,33.40
2023-01-29T06:43:59.597Z,35.40
2023-01-29T06:46:27.125Z,33.10
2023-01-29T06:48:54.512Z,34.40
2023-01-29T06:51:23.024Z,37.40
2023-01-29T06:53:50.519Z,37.00
2023-01-29T06:56:17.936Z,31.40
2023-01-29T06:58:45.317Z,33.70
2023-01-29T07:01:25.350Z,34.50
2023-01-29T07:04:00.682Z,38.30
2023-01-29T07:06:30.147Z,36.50
2023-01-29T07:08:57.603Z,29.70
2023-01-29T07:11:25.069Z,33.90
2023-01-29T07:13:52.442Z,35.30
2023-01-29T07:16:20.141Z,33.70
2023-01-29T07:18:47.715Z,32.50
2023-01-29T07:21:15.288Z,32.30
2023-01-29T07:23:42.816Z,33.50
2023-01-29T07:26:11.304Z,36.90
2023-01-29T07:28:39.979Z,35.10
2023-01-29T07:31:08.590Z,33.30
2023-01-29T07:33:36.015Z,30.80
2023-01-29T07:36:08.536Z,32.10
2023-01-29T07:38:35.981Z,36.40
2023-01-29T07:41:03.673Z,34.60
2023-01-29T07:43:31.046Z,34.10
2023-01-29T07:46:03.301Z,37.30
2023-01-29T07:48:30.648Z,34.80
2023-01-29T07:50:59.073Z,34.80
2023-01-29T07:53:28.049Z,35.40
2023-01-29T07:55:56.143Z,36.10
2023-01-29T07:58:23.662Z,37.50
2023-01-29T08:00:51.175Z,38.70
2023-01-29T08:03:22.447Z,38.80
2023-01-29T08:05:50.033Z,39.30
2023-01-29T08:08:17.543Z,38.80
2023-01-29T08:10:44.998Z,39.40
2023-01-29T08:13:12.414Z,39.70
2023-01-29T08:15:45.263Z,38.00
2023-01-29T08:18:14.126Z,41.80
2023-01-29T08:20:41.497Z,41.60
2023-01-29T08:23:16.402Z,35.70
2023-01-29T08:25:44.258Z,42.10
2023-01-29T08:28:12.435Z,41.70
2023-01-29T08:30:40.154Z,39.10
2023-01-29T08:33:07.670Z,40.30
2023-01-29T08:35:35.195Z,41.80
2023-01-29T08:38:04.818Z,39.70
2023-01-29T08:40:34.699Z,42.80
2023-01-29T08:43:09.152Z,40.60
2023-01-29T08:45:41.654Z,41.20
2023-01-29T08:48:09.855Z,43.30
2023-01-29T08:50:38.036Z,41.70
2023-01-29T08:53:08.688Z,38.00
2023-01-29T08:55:38.420Z,38.20
2023-01-29T08:58:08.269Z,43.40
2023-01-29T09:00:35.927Z,41.20
2023-01-29T09:03:03.903Z,43.00
2023-01-29T09:05:31.315Z,43.80
2023-01-29T09:07:59.128Z,42.90
2023-01-29T09:10:27.289Z,43.40
2023-01-29T09:12:54.662Z,41.40
2023-01-29T09:15:22.693Z,40.70
2023-01-29T09:17:50.271Z,41.60
2023-01-29T09:20:18.286Z,39.70
2023-01-29T09:22:46.937Z,42.10
2023-01-29T09:25:14.867Z,46.20
2023-01-29T09:27:42.590Z,45.60
2023-01-29T09:30:11.054Z,45.00
2023-01-29T09:32:54.677Z,44.60
2023-01-29T09:35:23.323Z,40.40
2023-01-29T09:37:51.965Z,38.70
2023-01-29T09:40:51.737Z,42.50
2023-01-29T09:43:36.003Z,41.80
2023-01-29T09:46:15.210Z,40.40
2023-01-29T09:48:44.883Z,40.70
2023-01-29T09:51:26.016Z,40.80
2023-01-29T09:54:23.507Z,41.90
2023-01-29T09:56:56.097Z,40.60
2023-01-29T09:59:30.375Z,39.40
2023-01-29T10:02:09.799Z,41.60
2023-01-29T10:05:01.151Z,37.10
2023-01-29T10:08:00.052Z,39.60
2023-01-29T10:10:55.356Z,38.00
2023-01-29T10:13:36.164Z,40.10
2023-01-29T10:16:21.574Z,39.60
2023-01-29T10:19:08.657Z,37.10
2023-01-29T10:21:45.774Z,38.80
2023-01-29T10:24:28.758Z,36.50
2023-01-29T10:26:56.155Z,39.00
2023-01-29T10:29:24.289Z,36.20
2023-01-29T10:32:04.730Z,35.00
2023-01-29T10:34:43.080Z,37.50
2023-01-29T10:37:19.440Z,39.20
2023-01-29T10:39:46.884Z,33.60
2023-01-29T10:42:24.422Z,35.20
2023-01-29T10:45:07.935Z,34.50
2023-01-29T10:48:21.301Z,34.00
2023-01-29T10:51:12.062Z,31.30
2023-01-29T10:54:14.279Z,34.20
2023-01-29T10:57:28.013Z,36.00
2023-01-29T11:00:17.097Z,35.70
2023-01-29T11:02:47.849Z,34.80
2023-01-29T11:05:38.909Z,33.50
2023-01-29T11:08:19.880Z,32.00
2023-01-29T11:11:17.353Z,31.50
2023-01-29T11:13:58.743Z,32.80
2023-01-29T11:16:30.193Z,35.60
2023-01-29T11:19:01.156Z,34.40
2023-01-29T11:21:29.789Z,29.30
2023-01-29T11:24:18.668Z,31.90
2023-01-29T11:26:50.037Z,29.90
2023-01-29T11:32:00.225Z,32.40
2023-01-29T11:34:27.870Z,30.80
2023-01-29T11:37:05.121Z,30.20
2023-01-29T11:39:32.888Z,28.50
2023-01-29T11:42:08.511Z,27.70
2023-01-29T11:44:42.948Z,27.70
2023-01-29T11:47:25.942Z,30.50
2023-01-29T11:50:00.718Z,27.40
2023-01-29T11:52:38.472Z,30.40
2023-01-29T11:55:15.273Z,31.70
2023-01-29T11:57:47.026Z,28.70
2023-01-29T12:00:27.140Z,27.90
2023-01-29T12:03:15.369Z,26.70
2023-01-29T12:05:56.484Z,16.20
2023-01-29T12:08:24.994Z,13.00
2023-01-29T12:11:08.540Z,12.80
2023-01-29T12:13:36.242Z,13.10
2023-01-29T12:16:18.814Z,12.00
2023-01-29T12:18:56.778Z,11.80
2023-01-29T12:21:35.253Z,12.20
2023-01-29T12:24:40.373Z,16.20
2023-01-29T12:27:17.556Z,14.30
2023-01-29T12:30:17.096Z,12.70
2023-01-29T12:32:50.025Z,13.00
2023-01-29T12:35:43.573Z,11.80
2023-01-29T12:38:19.369Z,11.60
2023-01-29T12:41:21.585Z,11.50
2023-01-29T12:43:57.624Z,13.00
2023-01-29T12:46:29.767Z,12.30
2023-01-29T12:49:02.025Z,9.90
2023-01-29T12:51:40.977Z,13.30
2023-01-29T12:54:22.857Z,9.70
2023-01-29T12:56:56.876Z,11.30
2023-01-29T12:59:43.269Z,9.90
2023-01-29T13:02:40.360Z,9.20
2023-01-29T13:05:23.058Z,11.90
2023-01-29T13:08:03.557Z,11.70
2023-01-29T13:10:41.093Z,9.60
2023-01-29T13:13:31.807Z,8.50
2023-01-29T13:16:01.225Z,9.30
2023-01-29T13:18:46.829Z,11.40
2023-01-29T13:21:20.433Z,8.90
2023-01-29T13:23:55.829Z,9.50
2023-01-29T13:26:24.218Z,8.00
2023-01-29T13:28:52.782Z,8.20
2023-01-29T13:31:39.172Z,10.10
2023-01-29T13:34:15.755Z,11.40
2023-01-29T13:36:47.209Z,6.80
2023-01-29T13:42:17.311Z,8.90
2023-01-29T13:44:50.243Z,9.00
2023-01-29T13:47:30.069Z,8.10
2023-01-29T13:50:09.635Z,9.60
2023-01-29T13:52:43.245Z,7.40
2023-01-29T13:55:13.674Z,7.80
2023-01-29T13:57:43.822Z,7.60
2023-01-29T14:00:25.072Z,8.90
2023-01-29T14:02:55.475Z,8.00
2023-01-29T14:05:31.931Z,8.30
2023-01-29T14:08:14.298Z,9.50
2023-01-29T14:10:43.427Z,8.70
2023-01-29T14:13:19.567Z,8.00
2023-01-29T14:15:58.996Z,6.30
2023-01-29T14:18:28.460Z,7.70
2023-01-29T14:21:20.676Z,8.20
2023-01-29T14:23:50.378Z,8.40
2023-01-29T14:26:38.055Z,8.40
2023-01-29T14:29:35.100Z,9.40
2023-01-29T14:32:19.665Z,9.30
2023-01-29T14:34:54.546Z,9.20
2023-01-29T14:37:29.191Z,10.10
2023-01-29T14:40:06.290Z,10.50
2023-01-29T14:42:45.453Z,8.70
2023-01-29T14:45:25.470Z,8.60
2023-01-29T14:47:59.551Z,7.10
2023-01-29T14:50:32.896Z,9.20
2023-01-29T14:54:03.057Z,10.70
2023-01-29T14:56:37.401Z,10.80
2023-01-29T14:59:20.884Z,8.50
2023-01-29T15:01:55.315Z,9.80
2023-01-29T15:04:33.645Z,8.70
2023-01-29T15:07:17.999Z,7.60
2023-01-29T15:10:01.332Z,7.70
2023-01-29T15:12:55.730Z,7.90
2023-01-29T15:15:53.126Z,9.10
2023-01-29T15:18:39.778Z,9.40
2023-01-29T15:21:19.120Z,8.10
2023-01-29T15:23:50.601Z,6.70
2023-01-29T15:29:04.278Z,7.00
2023-01-29T15:31:32.507Z,7.30
2023-01-29T15:34:06.745Z,7.20
2023-01-29T15:36:34.411Z,11.10
2023-01-29T15:39:25.008Z,9.60
2023-01-29T15:42:13.293Z,11.30
2023-01-29T15:44:46.450Z,7.40
2023-01-29T15:47:15.299Z,7.90
2023-01-29T15:49:45.814Z,8.80
2023-01-29T15:52:24.815Z,11.00
2023-01-29T15:54:53.129Z,11.70
2023-01-29T15:57:25.469Z,9.80
2023-01-29T15:59:56.381Z,10.30
2023-01-29T16:02:38.310Z,10.90
2023-01-29T16:05:13.208Z,9.90
2023-01-29T16:07:42.235Z,8.20
2023-01-29T16:10:20.418Z,8.40
2023-01-29T16:12:53.158Z,8.70
2023-01-29T16:15:34.251Z,9.20
2023-01-29T16:18:05.207Z,8.90
2023-01-29T16:20:46.046Z,7.40
2023-01-29T16:23:25.468Z,11.60
2023-01-29T16:25:53.711Z,8.90
2023-01-29T16:28:21.511Z,10.80
2023-01-29T16:30:58.170Z,10.70
2023-01-29T16:33:45.475Z,9.90
2023-01-29T16:36:19.049Z,12.70
2023-01-29T16:38:54.204Z,12.70
2023-01-29T16:41:21.539Z,13.50
2023-01-29T16:43:56.050Z,13.30
2023-01-29T16:46:24.690Z,13.00
2023-01-29T16:48:53.356Z,13.20
2023-01-29T16:51:20.658Z,11.10
2023-01-29T16:54:23.387Z,13.00
2023-01-29T16:56:56.123Z,12.60
2023-01-29T16:59:32.914Z,11.30
2023-01-29T17:02:00.502Z,13.40
2023-01-29T17:04:28.352Z,13.30
2023-01-29T17:06:59.922Z,11.10
2023-01-29T17:09:32.857Z,13.20
2023-01-29T17:12:05.465Z,12.90
2023-01-29T17:14:35.959Z,15.10
2023-01-29T17:17:15.539Z,11.60
2023-01-29T17:19:43.038Z,11.90
2023-01-29T17:22:14.806Z,13.60
2023-01-29T17:24:42.635Z,10.90
2023-01-29T17:27:20.524Z,11.90
2023-01-29T17:29:48.798Z,11.80
2023-01-29T17:32:20.012Z,10.20
2023-01-29T17:34:47.513Z,13.10
2023-01-29T17:37:16.650Z,11.50
2023-01-29T17:39:45.777Z,10.80
2023-01-29T17:42:15.172Z,13.50
2023-01-29T17:44:43.219Z,14.80
2023-01-29T17:47:15.146Z,12.80
2023-01-29T17:49:43.015Z,14.50
2023-01-29T17:52:10.573Z,14.70
2023-01-29T17:54:38.142Z,13.50
2023-01-29T17:57:05.547Z,14.40
2023-01-29T17:59:33.972Z,13.60
2023-01-29T18:02:01.435Z,15.20
2023-01-29T18:04:28.830Z,12.30
2023-01-29T18:06:58.099Z,11.70
2023-01-29T18:09:25.672Z,12.50
2023-01-29T18:11:53.641Z,13.00
2023-01-29T18:14:21.040Z,15.10
2023-01-29T18:16:48.545Z,13.10
2023-01-29T18:19:28.235Z,13.70
2023-01-29T18:21:56.276Z,14.40
2023-01-29T18:24:26.488Z,13.60
2023-01-29T18:26:53.990Z,12.40
2023-01-29T18:29:21.363Z,12.70
2023-01-29T18:31:49.662Z,13.60
2023-01-29T18:34:17.332Z,13.10
2023-01-29T18:36:47.670Z,12.60
2023-01-29T18:39:15.665Z,12.50
2023-01-29T18:41:43.250Z,15.50
2023-01-29T18:44:11.705Z,13.10
2023-01-29T18:46:39.098Z,11.50
2023-01-29T18:49:06.569Z,13.80
2023-01-29T18:51:34.018Z,11.80
2023-01-29T18:54:01.478Z,12.80
2023-01-29T18:56:28.878Z,12.30
2023-01-29T18:58:56.516Z,11.40
2023-01-29T19:01:24.173Z,12.90
2023-01-29T19:03:52.145Z,11.10
2023-01-29T19:06:19.637Z,11.60
2023-01-29T19:08:47.454Z,12.50
2023-01-29T19:11:14.908Z,14.10
2023-01-29T19:13:42.946Z,12.50
2023-01-29T19:16:12.639Z,13.50
2023-01-29T19:18:40.156Z,16.10
2023-01-29T19:21:11.631Z,15.30
2023-01-29T19:26:07.856Z,12.90
2023-01-29T19:28:36.695Z,13.40
2023-01-29T19:31:04.282Z,15.90
2023-01-29T19:33:31.967Z,16.30
2023-01-29T19:36:00.170Z,13.20
2023-01-29T19:38:28.555Z,13.00
2023-01-29T19:40:55.896Z,12.30
2023-01-29T19:43:23.871Z,13.30
2023-01-29T19:46:00.755Z,13.60
2023-01-29T19:48:28.617Z,13.50
2023-01-29T19:50:58.962Z,14.20
2023-01-29T19:53:28.972Z,15.00
2023-01-29T19:56:02.414Z,14.30
2023-01-29T19:58:30.111Z,18.70
2023-01-29T20:01:00.508Z,17.50
2023-01-29T20:03:29.467Z,13.20
2023-01-29T20:06:03.614Z,16.20
2023-01-29T20:08:31.724Z,14.70
2023-01-29T20:10:59.423Z,16.60
2023-01-29T20:13:27.346Z,18.00
2023-01-29T20:15:55.970Z,15.60
2023-01-29T20:18:23.548Z,16.40
2023-01-29T20:20:53.138Z,16.80
2023-01-29T20:23:36.741Z,17.00
2023-01-29T20:26:11.609Z,14.70
2023-01-29T20:28:39.061Z,16.20
2023-01-29T20:31:08.412Z,18.10
2023-01-29T20:33:39.187Z,17.00
2023-01-29T20:36:10.258Z,16.10
2023-01-29T20:38:38.125Z,18.00
2023-01-29T20:41:16.392Z,20.90
2023-01-29T20:43:44.527Z,16.40
2023-01-29T20:46:12.467Z,17.20
2023-01-29T20:48:42.094Z,16.40
2023-01-29T20:51:16.607Z,16.20
2023-01-29T20:53:46.640Z,17.20
2023-01-29T20:56:16.789Z,17.30
2023-01-29T20:58:45.195Z,14.80
2023-01-29T21:01:17.073Z,14.80
2023-01-29T21:03:44.989Z,13.30
2023-01-29T21:06:13.365Z,15.80
2023-01-29T21:08:41.207Z,16.10
2023-01-29T21:11:09.478Z,16.90
2023-01-29T21:13:37.601Z,13.90
2023-01-29T21:16:05.823Z,15.40
2023-01-29T21:18:33.537Z,14.70
2023-01-29T21:21:00.888Z,13.90
2023-01-29T21:23:28.483Z,15.90
2023-01-29T21:26:04.421Z,14.60
2023-01-29T21:28:32.094Z,13.80
2023-01-29T21:31:10.133Z,13.00
2023-01-29T21:33:38.502Z,13.90
2023-01-29T21:36:06.972Z,15.40
2023-01-29T21:38:34.416Z,17.60
2023-01-29T21:41:05.889Z,14.30
2023-01-29T21:46:06.107Z,15.10
2023-01-29T21:48:33.567Z,14.80
2023-01-29T21:51:01.088Z,15.20
2023-01-29T21:53:28.511Z,16.90
2023-01-29T21:56:00.983Z,16.20
2023-01-29T21:58:29.111Z,15.30
2023-01-29T22:00:57.255Z,16.20
2023-01-29T22:03:47.084Z,15.60
2023-01-29T22:06:15.538Z,16.00
2023-01-29T22:08:43.014Z,15.10
2023-01-29T22:11:10.561Z,13.50
2023-01-29T22:13:38.248Z,19.00
2023-01-29T22:16:06.352Z,15.60
2023-01-29T22:18:34.587Z,15.30
2023-01-29T22:21:02.946Z,15.40
2023-01-29T22:23:31.917Z,15.70
2023-01-29T22:26:07.661Z,17.90
2023-01-29T22:28:35.207Z,16.40
2023-01-29T22:31:04.690Z,18.50
2023-01-29T22:33:33.509Z,16.70
2023-01-29T22:36:01.127Z,20.10
2023-01-29T22:38:29.045Z,18.40
2023-01-29T22:40:57.847Z,17.40
2023-01-29T22:43:29.193Z,19.40
2023-01-29T22:48:24.261Z,16.90
2023-01-29T22:51:19.369Z,17.60
2023-01-29T22:53:56.132Z,18.80
2023-01-29T22:56:26.203Z,17.60
2023-01-29T22:58:56.221Z,20.50
2023-01-29T23:01:28.147Z,19.50
2023-01-29T23:03:56.166Z,17.00
2023-01-29T23:06:23.832Z,18.00
2023-01-29T23:08:51.466Z,18.60
2023-01-29T23:11:21.495Z,18.40
2023-01-29T23:13:55.580Z,22.20
2023-01-29T23:16:27.719Z,18.10
2023-01-29T23:18:56.958Z,19.80
2023-01-29T23:21:26.294Z,22.80
2023-01-29T23:23:55.399Z,20.80
2023-01-29T23:26:41.366Z,20.60
2023-01-29T23:29:09.307Z,20.90
2023-01-29T23:31:36.776Z,21.80
2023-01-29T23:34:04.238Z,23.60
2023-01-29T23:36:31.819Z,22.70
2023-01-29T23:38:59.135Z,21.80
2023-01-29T23:41:26.550Z,22.00
2023-01-29T23:43:54.157Z,19.70
2023-01-29T23:46:21.622Z,21.10
2023-01-29T23:48:49.188Z,24.10
2023-01-29T23:51:16.632Z,18.30
2023-01-29T23:53:44.012Z,24.00
2023-01-29T23:56:11.917Z,21.70
2023-01-29T23:58:39.704Z,20.50
